Neudorf, Canada
Current Conditions -  °F | °C
As of 10:00 AM on Friday 24 Oct 2014 (Local Time) from CYQV Reporting Station
Clear Clear  
Wind Chill: 55°   Ceiling: Unl
Heat Index: 55°   Visibility: 9mi
Dew Point: 39°   Wind: 25mph
Humidity: 54%   Direction: 270°W
Pressure: 29.62"   Gusts: 35mph
Location:  50.72°N, 103°W
Report Text: CYQV 241600Z AUTO 27022G30KT 9SM CLR 13/04 A2962 RMK PRESRR SLP039 DENSITY ALT 2000FT
Loading
Personal Weather Stations






























Interactive Weather Map
Tropical Storm Tracking
New forecast layout! Learn more

10-Day Weather Forecast

Advertisements
Track Severe Weather on mobile